»·PEaware :: N372AH KNYL-KPSP

N372AH :: KNYL-KPSP

FLIGHT INFORMATION

Flight Status: Arrived
Operator: Privately registered:
United States
More flights under this callsign
Pilot: Joseph C. (13369)
Aircraft: CESSNA 182 SKYLANE
(C182)
More flights by this aircraft type
Origin: KNYL Yuma MCAS/Yuma Intl
United States
Destination: KPSP Palm Springs Intl
United States
More flights between these airports :: More routes between these airports
Route: +BHL
File this flight plan on PilotEdge
Remarks:
Altitude:
(Current/Filed)
65ft
Speed:
(Current/Filed)
135kts
Departed: 15-Dec-17 07:39 PM
Arrived: 15-Dec-17 08:41 PM
Distance/Time
Traveled:
118nm/1:02
Distance/Time
To Go:
Arrived

Flight Plot

Page will automatically refresh every two minutes.

Flight plan parsing failed; only flown route is shown


Map Options




Map Legend


Flown Route
Filed Route
Departure Airport
Arrival Airport
Navaid (VOR, NDB)
Fix

Horizontal Profiles

Position Reports

Time Latitude Longitude Heading Altitude Ground
Speed
15-Dec-17 19:24 32.660818 -114.609635 82 188ft 0kts
15-Dec-17 19:25 32.660818 -114.609635 82 188ft 0kts
15-Dec-17 19:26 32.660818 -114.609635 82 188ft 0kts
15-Dec-17 19:27 32.660818 -114.609635 82 188ft 0kts
15-Dec-17 19:28 32.660818 -114.609635 82 188ft 0kts
15-Dec-17 19:29 32.660818 -114.609635 82 188ft 0kts
15-Dec-17 19:30 32.660818 -114.609635 82 188ft 0kts
15-Dec-17 19:31 32.660818 -114.609635 82 188ft 0kts
15-Dec-17 19:32 32.660818 -114.609635 82 188ft 0kts
15-Dec-17 19:33 32.660818 -114.609635 82 188ft 0kts
15-Dec-17 19:34 32.660818 -114.609635 82 188ft 0kts
15-Dec-17 19:35 32.660818 -114.609635 82 188ft 0kts
15-Dec-17 19:36 32.660818 -114.609635 82 188ft 0kts
15-Dec-17 19:37 32.660818 -114.609635 82 188ft 0kts
15-Dec-17 19:38 32.660818 -114.609635 82 188ft 0kts
15-Dec-17 19:39 32.660818 -114.609635 82 188ft 0kts
15-Dec-17 19:40 32.660818 -114.609635 82 188ft 0kts
15-Dec-17 19:41 32.660818 -114.609635 82 188ft 0kts
15-Dec-17 19:42 32.659501 -114.609253 179 188ft 5kts
15-Dec-17 19:43 32.659583 -114.606571 44 188ft 10kts
15-Dec-17 19:44 32.660016 -114.603908 353 190ft 3kts
15-Dec-17 19:45 32.672275 -114.603837 0 816ft 75kts
15-Dec-17 19:46 32.693058 -114.607646 341 2092ft 84kts
15-Dec-17 19:47 32.716911 -114.612888 350 3384ft 90kts
15-Dec-17 19:48 32.741873 -114.617412 351 4655ft 97kts
15-Dec-17 19:49 32.768662 -114.622028 351 5936ft 98kts
15-Dec-17 19:50 32.799943 -114.627265 352 6503ft 139kts
15-Dec-17 19:51 32.839196 -114.633765 352 6499ft 144kts
15-Dec-17 19:52 32.878878 -114.640368 352 6499ft 144kts
15-Dec-17 19:53 32.918581 -114.646990 351 6499ft 144kts
15-Dec-17 19:54 32.958118 -114.653592 352 6523ft 144kts
15-Dec-17 19:55 32.997849 -114.660226 351 6503ft 145kts
15-Dec-17 19:56 33.037751 -114.666899 351 6504ft 145kts
15-Dec-17 19:57 33.077538 -114.673561 351 6504ft 145kts
15-Dec-17 19:58 33.116405 -114.680075 351 6507ft 145kts
15-Dec-17 19:59 33.156103 -114.686752 351 6517ft 145kts
15-Dec-17 20:00 33.195844 -114.693436 352 6528ft 144kts
15-Dec-17 20:01 33.235392 -114.700088 353 6536ft 144kts
15-Dec-17 20:02 33.274865 -114.706730 353 6543ft 144kts
15-Dec-17 20:03 33.314596 -114.713400 353 6549ft 144kts
15-Dec-17 20:04 33.354263 -114.720076 353 6557ft 145kts
15-Dec-17 20:05 33.394017 -114.726779 353 6564ft 145kts
15-Dec-17 20:06 33.433923 -114.733508 354 6571ft 144kts
15-Dec-17 20:07 33.473635 -114.740219 353 6578ft 144kts
15-Dec-17 20:08 33.513326 -114.746937 353 6585ft 144kts
15-Dec-17 20:09 33.553168 -114.753684 353 6593ft 144kts
15-Dec-17 20:10 33.591810 -114.764296 310 6583ft 150kts
15-Dec-17 20:11 33.602719 -114.812948 282 6600ft 152kts
15-Dec-17 20:12 33.610490 -114.863671 281 6669ft 155kts
15-Dec-17 20:13 33.617792 -114.914579 280 6743ft 155kts
15-Dec-17 20:14 33.624994 -114.965811 280 6818ft 155kts
15-Dec-17 20:15 33.632138 -115.017025 280 6893ft 155kts
15-Dec-17 20:16 33.639244 -115.068172 281 6967ft 155kts
15-Dec-17 20:17 33.646293 -115.119071 281 7042ft 155kts
15-Dec-17 20:18 33.653318 -115.169962 281 7116ft 154kts
15-Dec-17 20:19 33.660322 -115.220862 281 7190ft 154kts
15-Dec-17 20:20 33.667263 -115.271467 281 7264ft 154kts
15-Dec-17 20:21 33.674193 -115.322146 281 7337ft 153kts
15-Dec-17 20:22 33.681082 -115.372686 281 7410ft 153kts
15-Dec-17 20:23 33.687949 -115.423219 281 7483ft 153kts
15-Dec-17 20:24 33.694757 -115.473458 281 7554ft 153kts
15-Dec-17 20:25 33.701557 -115.523805 281 7626ft 153kts
15-Dec-17 20:26 33.708364 -115.574369 281 7697ft 153kts
15-Dec-17 20:27 33.715140 -115.624875 281 7767ft 153kts
15-Dec-17 20:28 33.721828 -115.674100 281 7839ft 153kts
15-Dec-17 20:29 33.729182 -115.727795 281 7254ft 170kts
15-Dec-17 20:30 33.736698 -115.784085 281 6540ft 170kts
15-Dec-17 20:31 33.743713 -115.837200 281 6490ft 156kts
15-Dec-17 20:32 33.750467 -115.888352 281 6490ft 155kts
15-Dec-17 20:33 33.757214 -115.939633 281 6490ft 155kts
15-Dec-17 20:34 33.764096 -115.992143 281 6097ft 158kts
15-Dec-17 20:35 33.770930 -116.044299 280 5690ft 157kts
15-Dec-17 20:36 33.777697 -116.096389 280 5285ft 157kts
15-Dec-17 20:37 33.784417 -116.148202 280 4884ft 157kts
15-Dec-17 20:38 33.791112 -116.199967 280 4486ft 156kts
15-Dec-17 20:39 33.797821 -116.251627 280 3948ft 160kts
15-Dec-17 20:40 33.804515 -116.304141 280 3271ft 160kts
15-Dec-17 20:41 33.811209 -116.356366 280 2599ft 159kts
15-Dec-17 20:42 33.818862 -116.399717 306 2444ft 100kts
15-Dec-17 20:43 33.825128 -116.430163 248 2003ft 105kts
15-Dec-17 20:44 33.812375 -116.460561 240 1598ft 100kts
15-Dec-17 20:45 33.807753 -116.483887 306 980ft 69kts
15-Dec-17 20:46 33.820994 -116.497031 323 524ft 57kts
15-Dec-17 20:47 33.826842 -116.501622 48 410ft 0kts
15-Dec-17 20:48 33.827086 -116.500856 44 409ft 0kts
15-Dec-17 20:49 33.827086 -116.500856 44 409ft 0kts
15-Dec-17 20:50 33.827086 -116.500856 44 409ft 0kts
15-Dec-17 20:51 33.827086 -116.500856 44 409ft 0kts
15-Dec-17 20:52 33.827086 -116.500856 44 409ft 0kts
15-Dec-17 20:53 33.827086 -116.500856 44 409ft 0kts
15-Dec-17 20:54 33.827086 -116.500856 44 409ft 0kts
15-Dec-17 20:55 33.827086 -116.500856 44 409ft 0kts
15-Dec-17 20:56 33.827086 -116.500856 44 409ft 0kts
15-Dec-17 20:57 33.827086 -116.500856 44 409ft 0kts
15-Dec-17 20:58 33.827086 -116.500856 44 409ft 0kts
15-Dec-17 20:59 33.827086 -116.500856 44 409ft 0kts
15-Dec-17 21:00 33.827086 -116.500856 44 409ft 0kts
15-Dec-17 21:01 33.827086 -116.500856 44 409ft 0kts

Navigation Log

Ident Type
Flight plan parsing failed, navigation log unavailable